Time;durP1;ratioP1;P1;durP2;ratioP2;P2;SDS_P1;SDS_P2;PMS_P1;PMS_P2;Temp;Humidity;BMP_temperature;BMP_pressure;BME280_temperature;BME280_humidity;BME280_pressure;Samples;Min_cycle;Max_cycle;Signal;HPM_P1;HPM_P2
2021/07/05 00:02:10;;;;;;;1.00;1.00;;;27.00;47.20;;;;;;5107606;28;20079;-69
2021/07/05 00:04:38;;;;;;;1.10;1.10;;;27.00;47.20;;;;;;5107978;28;20091;-69
2021/07/05 00:07:05;;;;;;;0.80;0.80;;;27.00;47.20;;;;;;5107509;28;20086;-69
2021/07/05 00:09:33;;;;;;;0.90;0.90;;;27.00;47.20;;;;;;5107732;28;20127;-69
2021/07/05 00:12:01;;;;;;;1.05;1.05;;;27.00;47.30;;;;;;5107488;28;20090;-69
2021/07/05 00:14:28;;;;;;;0.73;0.73;;;27.00;47.30;;;;;;5108056;28;20480;-69
2021/07/05 00:16:55;;;;;;;0.98;0.85;;;26.90;47.20;;;;;;5108057;28;20130;-69
2021/07/05 00:19:23;;;;;;;0.70;0.70;;;27.00;47.30;;;;;;5107445;28;20048;-69
2021/07/05 00:21:52;;;;;;;0.75;0.75;;;26.90;47.30;;;;;;5107441;28;20134;-69
2021/07/05 00:24:19;;;;;;;0.95;0.95;;;26.90;47.30;;;;;;5107655;28;20060;-69
2021/07/05 00:26:47;;;;;;;0.90;0.90;;;26.90;47.30;;;;;;5107557;28;20075;-69
2021/07/05 00:29:14;;;;;;;0.60;0.60;;;26.90;47.30;;;;;;5107646;28;20075;-68
2021/07/05 00:31:41;;;;;;;0.77;0.77;;;26.90;47.30;;;;;;5107165;28;20579;-69
2021/07/05 00:34:08;;;;;;;0.80;0.80;;;26.90;47.30;;;;;;5107983;28;20066;-69
2021/07/05 00:36:36;;;;;;;0.77;0.77;;;26.90;47.30;;;;;;5107086;28;20079;-69
2021/07/05 00:39:04;;;;;;;0.60;0.60;;;26.90;47.30;;;;;;5090081;28;20075;-69
2021/07/05 00:41:31;;;;;;;0.90;0.90;;;27.00;47.40;;;;;;5107376;28;20054;-69
2021/07/05 00:43:59;;;;;;;0.85;0.85;;;27.00;47.40;;;;;;5107686;28;20052;-69
2021/07/05 00:46:27;;;;;;;1.00;1.00;;;26.90;47.40;;;;;;5107500;28;20130;-69
2021/07/05 00:48:54;;;;;;;0.98;0.90;;;26.90;47.40;;;;;;5107402;28;20067;-69
2021/07/05 00:51:23;;;;;;;0.80;0.80;;;26.90;47.40;;;;;;5108441;28;20078;-68
2021/07/05 00:53:51;;;;;;;0.90;0.90;;;26.90;47.40;;;;;;5111502;28;20492;-69
2021/07/05 00:56:18;;;;;;;1.10;1.10;;;26.90;47.30;;;;;;5093682;28;20052;-69
2021/07/05 00:58:45;;;;;;;0.88;0.88;;;26.90;47.30;;;;;;5111502;28;20139;-69
2021/07/05 01:01:13;;;;;;;0.85;0.85;;;26.90;47.30;;;;;;5110519;28;20126;-69
2021/07/05 01:03:40;;;;;;;0.68;0.68;;;26.90;47.30;;;;;;5111439;28;20492;-69
2021/07/05 01:06:07;;;;;;;0.93;0.90;;;26.90;47.30;;;;;;5110970;28;20723;-68
2021/07/05 01:08:34;;;;;;;0.70;0.70;;;27.00;47.40;;;;;;5111194;28;20416;-69
2021/07/05 01:11:01;;;;;;;0.80;0.80;;;26.90;47.30;;;;;;5111261;28;20040;-69
2021/07/05 01:13:28;;;;;;;0.77;0.77;;;26.90;47.30;;;;;;5093012;28;20302;-69
2021/07/05 01:15:56;;;;;;;1.00;1.00;;;27.00;47.90;;;;;;5111121;28;20490;-69
2021/07/05 01:18:23;;;;;;;1.15;1.00;;;27.00;47.30;;;;;;5110813;28;20083;-69
2021/07/05 01:20:50;;;;;;;1.05;0.95;;;27.00;47.30;;;;;;5111376;28;20140;-69
2021/07/05 01:23:17;;;;;;;0.73;0.73;;;26.90;47.30;;;;;;5092855;28;20418;-69
2021/07/05 01:25:44;;;;;;;1.00;0.70;;;26.90;47.30;;;;;;5110930;28;20048;-69
2021/07/05 01:28:12;;;;;;;0.93;0.93;;;26.90;47.30;;;;;;5110559;28;20134;-69
2021/07/05 01:30:40;;;;;;;0.93;0.93;;;26.90;47.30;;;;;;5110583;28;20047;-69
2021/07/05 01:33:09;;;;;;;1.02;0.60;;;26.90;47.40;;;;;;5110491;28;20052;-69
2021/07/05 01:35:38;;;;;;;0.85;0.82;;;26.90;47.40;;;;;;5110909;28;20044;-68
2021/07/05 01:38:19;;;;;;;0.90;0.90;;;26.90;47.40;;;;;;5110095;28;20055;-69
2021/07/05 01:40:53;;;;;;;0.85;0.85;;;26.90;47.40;;;;;;5110470;28;20119;-69
2021/07/05 01:43:21;;;;;;;1.02;1.02;;;26.90;47.40;;;;;;5110283;28;20136;-69
2021/07/05 01:45:48;;;;;;;0.80;0.80;;;26.90;47.50;;;;;;5110574;28;20480;-69
2021/07/05 01:48:15;;;;;;;0.77;0.77;;;26.90;47.40;;;;;;5109860;28;20075;-69
2021/07/05 01:50:43;;;;;;;0.85;0.80;;;26.90;47.40;;;;;;5110147;28;20127;-69
2021/07/05 01:53:11;;;;;;;0.80;0.80;;;26.90;47.40;;;;;;5110272;28;20051;-69
2021/07/05 01:55:39;;;;;;;0.80;0.80;;;26.90;47.50;;;;;;5110644;28;20122;-68
2021/07/05 01:58:07;;;;;;;0.77;0.77;;;26.90;47.50;;;;;;5092244;28;20443;-69
2021/07/05 02:00:36;;;;;;;0.90;0.90;;;26.90;47.50;;;;;;5110078;28;20054;-69
2021/07/05 02:03:04;;;;;;;0.87;0.87;;;26.90;47.50;;;;;;5109245;28;20473;-69
2021/07/05 02:05:32;;;;;;;0.90;0.90;;;26.90;47.50;;;;;;5109990;28;20043;-68
2021/07/05 02:08:00;;;;;;;0.82;0.82;;;26.90;47.50;;;;;;5092004;28;20447;-69
2021/07/05 02:10:30;;;;;;;1.10;1.10;;;26.90;47.50;;;;;;5110023;28;20131;-69
2021/07/05 02:12:59;;;;;;;1.23;1.15;;;26.90;47.60;;;;;;5109824;28;20079;-69
2021/07/05 02:15:26;;;;;;;0.80;0.80;;;26.90;47.60;;;;;;5110415;28;20048;-69
2021/07/05 02:17:53;;;;;;;1.33;1.23;;;26.90;47.50;;;;;;5109646;28;20055;-69
2021/07/05 02:20:25;;;;;;;0.93;0.93;;;26.90;48.10;;;;;;5109414;28;20048;-69
2021/07/05 02:22:53;;;;;;;0.85;0.85;;;26.90;47.50;;;;;;5109736;28;20481;-69
2021/07/05 02:25:26;;;;;;;0.73;0.73;;;26.90;47.50;;;;;;5110011;28;20175;-69
2021/07/05 02:28:00;;;;;;;0.88;0.88;;;26.90;47.50;;;;;;5109760;28;20047;-69
2021/07/05 02:30:29;;;;;;;0.88;0.88;;;26.90;47.50;;;;;;5091680;28;20136;-69
2021/07/05 02:32:57;;;;;;;0.90;0.90;;;26.90;47.50;;;;;;5109797;28;20048;-69
2021/07/05 02:35:27;;;;;;;1.02;1.00;;;26.90;47.40;;;;;;5109553;28;20100;-69
2021/07/05 02:37:54;;;;;;;0.70;0.70;;;26.90;47.40;;;;;;5091330;28;20576;-69
2021/07/05 02:40:24;;;;;;;1.10;1.10;;;26.90;47.40;;;;;;5109478;28;20047;-69
2021/07/05 02:42:51;;;;;;;1.10;1.10;;;26.90;47.40;;;;;;5109000;28;20518;-69
2021/07/05 02:45:23;;;;;;;0.85;0.85;;;26.90;47.40;;;;;;5109102;28;20075;-69
2021/07/05 02:47:56;;;;;;;0.80;0.80;;;26.90;47.40;;;;;;5109274;28;20208;-69
2021/07/05 02:50:24;;;;;;;0.88;0.88;;;26.90;47.40;;;;;;5108957;28;20123;-69
2021/07/05 02:52:53;;;;;;;0.85;0.85;;;26.90;47.40;;;;;;5109015;28;20047;-69
2021/07/05 02:55:20;;;;;;;0.85;0.85;;;26.90;47.40;;;;;;5108833;28;20044;-69
2021/07/05 02:57:48;;;;;;;0.90;0.90;;;26.90;47.40;;;;;;5109270;28;20110;-69
2021/07/05 03:00:21;;;;;;;0.80;0.80;;;26.90;47.40;;;;;;5108572;28;20048;-69
2021/07/05 03:02:49;;;;;;;1.02;1.02;;;26.90;47.40;;;;;;5108826;28;20126;-69
2021/07/05 03:05:21;;;;;;;0.90;0.90;;;26.90;47.50;;;;;;5109033;28;20052;-69
2021/07/05 03:07:48;;;;;;;1.10;1.00;;;26.90;47.50;;;;;;5108890;28;20075;-69
2021/07/05 03:10:19;;;;;;;0.90;0.90;;;26.90;47.50;;;;;;5108556;28;20091;-69
2021/07/05 03:12:47;;;;;;;0.82;0.82;;;26.90;47.50;;;;;;5108399;28;20134;-69
2021/07/05 03:15:15;;;;;;;1.35;1.10;;;26.90;47.50;;;;;;5107988;28;20386;-69
2021/07/05 03:17:44;;;;;;;0.80;0.80;;;26.90;47.50;;;;;;5109121;28;20051;-68
2021/07/05 03:20:16;;;;;;;0.85;0.77;;;26.90;47.50;;;;;;5108335;28;20082;-69
2021/07/05 03:22:46;;;;;;;0.70;0.70;;;26.80;47.40;;;;;;5108527;28;20050;-68
2021/07/05 03:25:14;;;;;;;;;;;26.90;47.50;;;;;;5090928;28;20051;-70
2021/07/05 03:27:41;;;;;;;0.63;0.63;;;26.90;47.50;;;;;;5108784;28;20529;-69
2021/07/05 03:30:10;;;;;;;0.90;0.90;;;26.80;47.50;;;;;;5108075;28;20040;-69
2021/07/05 03:32:38;;;;;;;0.90;0.90;;;26.80;47.50;;;;;;5108002;28;20043;-69
2021/07/05 03:35:08;;;;;;;1.13;1.08;;;26.90;47.50;;;;;;5108591;28;20075;-69
2021/07/05 03:37:35;;;;;;;2.08;1.15;;;26.90;47.60;;;;;;5107791;28;20135;-69
2021/07/05 03:40:05;;;;;;;1.10;1.10;;;26.90;47.60;;;;;;5108005;28;20075;-69
2021/07/05 03:42:32;;;;;;;;;;;26.80;47.50;;;;;;5108772;28;20079;-69
2021/07/05 03:45:00;;;;;;;1.02;1.02;;;26.90;47.50;;;;;;5108079;28;20386;-69
2021/07/05 03:47:27;;;;;;;1.00;1.00;;;26.80;47.50;;;;;;5108283;28;20051;-69
2021/07/05 03:49:54;;;;;;;0.85;0.85;;;26.90;47.50;;;;;;5107630;28;20502;-69
2021/07/05 03:52:21;;;;;;;0.98;0.98;;;26.80;47.40;;;;;;5090436;28;20402;-69
2021/07/05 03:54:48;;;;;;;0.82;0.82;;;26.90;47.50;;;;;;5107656;28;20527;-69
2021/07/05 03:57:22;;;;;;;0.95;0.95;;;26.90;47.50;;;;;;5107693;28;20584;-69
2021/07/05 03:59:54;;;;;;;1.02;1.02;;;26.90;47.40;;;;;;5089363;28;20590;-68
2021/07/05 04:02:21;;;;;;;0.93;0.93;;;26.90;47.40;;;;;;5107257;28;20112;-69
2021/07/05 04:04:49;;;;;;;0.90;0.90;;;26.90;47.40;;;;;;5107585;28;20047;-69
2021/07/05 04:07:18;;;;;;;1.00;1.00;;;26.90;47.40;;;;;;5107787;28;20127;-69
2021/07/05 04:09:46;;;;;;;0.90;0.90;;;26.90;47.40;;;;;;5107767;28;20127;-69
2021/07/05 04:12:15;;;;;;;1.20;1.10;;;26.90;47.90;;;;;;5089799;28;20079;-69
2021/07/05 04:14:42;;;;;;;1.63;1.17;;;26.90;47.30;;;;;;5104585;28;20124;-69
2021/07/05 04:17:10;;;;;;;1.10;1.10;;;26.90;47.30;;;;;;5103278;28;20062;-69
2021/07/05 04:19:37;;;;;;;1.15;1.10;;;26.90;47.30;;;;;;5106119;28;20044;-69
2021/07/05 04:22:04;;;;;;;1.15;1.15;;;26.90;47.30;;;;;;5106672;28;20051;-69
2021/07/05 04:24:31;;;;;;;1.10;1.00;;;26.90;47.30;;;;;;5106129;28;20085;-69
2021/07/05 04:26:58;;;;;;;0.80;0.80;;;26.90;47.30;;;;;;5108794;28;20548;-69
2021/07/05 04:29:25;;;;;;;1.20;1.20;;;26.90;47.30;;;;;;5110628;28;20050;-69
2021/07/05 04:31:52;;;;;;;1.02;1.02;;;26.90;47.30;;;;;;5092129;28;20051;-69
2021/07/05 04:34:40;;;;;;;1.02;1.02;;;26.90;47.30;;;;;;5095424;28;20044;-69
2021/07/05 04:37:07;;;;;;;1.40;1.30;;;26.90;47.30;;;;;;5110484;28;20503;-69
2021/07/05 04:39:37;;;;;;;1.00;1.00;;;26.90;47.30;;;;;;5110419;28;20043;-69
2021/07/05 04:42:05;;;;;;;1.15;1.15;;;26.90;47.40;;;;;;5110637;28;20055;-69
2021/07/05 04:44:32;;;;;;;1.30;1.25;;;26.90;47.30;;;;;;5110826;28;20108;-70
2021/07/05 04:46:59;;;;;;;1.85;1.10;;;26.90;47.30;;;;;;5110218;28;20123;-69
2021/07/05 04:49:27;;;;;;;1.50;1.20;;;26.90;47.40;;;;;;5075533;28;20556;-69
2021/07/05 04:51:54;;;;;;;1.20;1.10;;;26.90;47.40;;;;;;5109954;28;20162;-69
2021/07/05 04:54:21;;;;;;;3.38;1.10;;;26.90;47.40;;;;;;5106958;28;20493;-69
2021/07/05 04:56:48;;;;;;;1.00;1.00;;;26.90;47.40;;;;;;5108554;28;20100;-69
2021/07/05 04:59:16;;;;;;;1.80;1.05;;;26.90;47.40;;;;;;5104405;28;20050;-69
2021/07/05 05:01:45;;;;;;;1.27;1.17;;;26.90;47.40;;;;;;5095274;28;20044;-69
2021/07/05 05:04:14;;;;;;;1.10;1.10;;;26.90;47.50;;;;;;5093820;28;20147;-69
2021/07/05 05:06:42;;;;;;;1.40;1.30;;;26.90;47.50;;;;;;5090129;28;20071;-69
2021/07/05 05:09:10;;;;;;;1.00;1.00;;;26.80;47.50;;;;;;5093329;28;20079;-70
2021/07/05 05:11:38;;;;;;;0.77;0.77;;;26.80;47.70;;;;;;5084405;28;20040;-69
2021/07/05 05:14:05;;;;;;;1.10;1.10;;;26.70;47.80;;;;;;5111223;28;20056;-69
2021/07/05 05:16:32;;;;;;;1.40;1.30;;;26.60;48.10;;;;;;5096962;28;20083;-69
2021/07/05 05:19:00;;;;;;;2.30;1.98;;;26.40;48.40;;;;;;5098584;28;20085;-69
2021/07/05 05:21:27;;;;;;;3.60;2.92;;;26.30;49.90;;;;;;5101596;28;20039;-70
2021/07/05 05:23:54;;;;;;;5.13;4.18;;;25.90;50.80;;;;;;5106610;28;20043;-71
2021/07/05 05:26:21;;;;;;;3.70;3.20;;;25.70;51.90;;;;;;5100721;28;20068;-70
2021/07/05 05:28:48;;;;;;;4.85;3.17;;;25.40;52.20;;;;;;5105441;28;20048;-70
2021/07/05 05:31:15;;;;;;;3.83;3.50;;;25.20;52.20;;;;;;5098865;28;20045;-71
2021/07/05 05:33:43;;;;;;;3.55;3.25;;;25.00;52.00;;;;;;5088868;28;20493;-70
2021/07/05 05:36:10;;;;;;;4.50;3.78;;;24.90;52.10;;;;;;5099064;28;20040;-71
2021/07/05 05:38:38;;;;;;;7.45;4.43;;;24.70;52.30;;;;;;5102467;28;20055;-70
2021/07/05 05:41:07;;;;;;;6.40;4.45;;;24.60;53.00;;;;;;5106010;27;20054;-69
2021/07/05 05:43:34;;;;;;;6.65;3.78;;;24.50;53.60;;;;;;5103170;27;20099;-69
2021/07/05 05:46:01;;;;;;;5.63;4.18;;;24.40;53.80;;;;;;5095051;28;20055;-70
2021/07/05 05:48:30;;;;;;;10.02;4.63;;;24.30;54.20;;;;;;5091153;28;20035;-69
2021/07/05 05:50:58;;;;;;;5.25;3.95;;;24.20;54.70;;;;;;5104118;28;20070;-69
2021/07/05 05:53:26;;;;;;;6.20;4.20;;;24.10;55.30;;;;;;5103303;28;20137;-69
2021/07/05 05:55:53;;;;;;;9.13;5.10;;;24.00;55.60;;;;;;5100523;28;20067;-69
2021/07/05 05:58:21;;;;;;;5.07;4.57;;;24.00;55.90;;;;;;5097672;28;20139;-69
2021/07/05 06:00:48;;;;;;;4.88;4.47;;;23.90;56.20;;;;;;5095980;27;20055;-69
2021/07/05 06:03:16;;;;;;;7.75;5.00;;;23.90;56.40;;;;;;5102028;27;20043;-69
2021/07/05 06:05:43;;;;;;;6.60;4.60;;;23.80;56.50;;;;;;5097615;27;20493;-69
2021/07/05 06:08:10;;;;;;;7.00;4.57;;;23.80;56.40;;;;;;5101955;28;20054;-69
2021/07/05 06:10:38;;;;;;;9.02;5.30;;;23.80;57.90;;;;;;5101011;28;20139;-69
2021/07/05 06:13:05;;;;;;;5.60;4.95;;;23.70;58.00;;;;;;5097292;28;20048;-69
2021/07/05 06:15:32;;;;;;;7.55;5.20;;;23.60;58.10;;;;;;5097943;27;20795;-69
2021/07/05 06:18:00;;;;;;;6.65;5.10;;;23.50;58.10;;;;;;5098451;27;20567;-69
2021/07/05 06:20:28;;;;;;;6.88;5.13;;;23.50;58.70;;;;;;5100637;27;20105;-70
2021/07/05 06:23:17;;;;;;;5.90;5.28;;;23.40;59.30;;;;;;5096464;27;20056;-70
2021/07/05 06:25:44;;;;;;;7.43;5.15;;;23.20;59.60;;;;;;5103392;27;20044;-70
2021/07/05 06:28:11;;;;;;;5.88;5.15;;;23.10;60.00;;;;;;5095823;27;20055;-70
2021/07/05 06:30:39;;;;;;;7.70;5.10;;;23.00;60.40;;;;;;5097861;27;20055;-68
2021/07/05 06:33:06;;;;;;;11.07;5.20;;;22.90;60.90;;;;;;5103293;27;20040;-68
2021/07/05 06:35:34;;;;;;;6.20;5.03;;;22.80;61.10;;;;;;5103234;27;20434;-68
2021/07/05 06:38:01;;;;;;;6.38;5.20;;;22.70;61.70;;;;;;5100725;28;20040;-68
2021/07/05 06:40:28;;;;;;;6.50;5.80;;;22.70;62.10;;;;;;5097067;28;20032;-68
2021/07/05 06:42:57;;;;;;;6.38;5.45;;;22.60;62.10;;;;;;5083203;28;20055;-70
2021/07/05 06:45:25;;;;;;;5.63;5.03;;;22.50;62.60;;;;;;5100796;27;20091;-70
2021/07/05 06:47:53;;;;;;;7.03;5.03;;;22.50;61.50;;;;;;5100095;28;20565;-70
2021/07/05 06:50:20;;;;;;;6.95;5.43;;;22.60;61.20;;;;;;5096350;27;20074;-69
2021/07/05 06:52:47;;;;;;;5.82;5.22;;;22.60;60.80;;;;;;5094097;27;20051;-70
2021/07/05 06:55:15;;;;;;;5.22;4.70;;;22.70;60.20;;;;;;5096476;27;20134;-70
2021/07/05 06:57:42;;;;;;;5.15;4.40;;;22.80;59.60;;;;;;5101592;27;20485;-70
2021/07/05 07:00:13;;;;;;;5.18;4.50;;;22.80;59.30;;;;;;5073410;28;20047;-70
2021/07/05 07:02:40;;;;;;;5.10;4.50;;;22.80;59.00;;;;;;5085631;27;20130;-70
2021/07/05 07:05:12;;;;;;;7.93;5.00;;;22.80;58.90;;;;;;5073473;27;20138;-71
2021/07/05 07:07:42;;;;;;;4.32;3.75;;;22.90;59.10;;;;;;5091707;27;20403;-68
2021/07/05 07:10:12;;;;;;;5.88;4.25;;;22.90;59.00;;;;;;5091732;28;20507;-69
2021/07/05 07:12:40;;;;;;;5.75;3.92;;;22.90;58.60;;;;;;5093691;27;20144;-69
2021/07/05 07:15:09;;;;;;;5.35;4.50;;;23.00;58.20;;;;;;5073174;28;20162;-69
2021/07/05 07:17:40;;;;;;;5.95;3.90;;;23.00;58.20;;;;;;5096134;27;20054;-70
2021/07/05 07:20:10;;;;;;;5.47;4.40;;;23.00;58.40;;;;;;5077745;28;20055;-71
2021/07/05 07:22:38;;;;;;;6.63;4.30;;;23.00;58.30;;;;;;5087676;28;20131;-69
2021/07/05 07:25:09;;;;;;;4.95;4.45;;;23.00;57.90;;;;;;5075653;28;20087;-70
2021/07/05 07:27:37;;;;;;;6.43;4.55;;;23.00;57.70;;;;;;5096795;27;20491;-70
2021/07/05 07:30:06;;;;;;;6.15;4.80;;;23.00;57.70;;;;;;5076110;28;20052;-70
2021/07/05 07:32:42;;;;;;;5.72;4.43;;;23.00;57.50;;;;;;5093709;28;20049;-70
2021/07/05 07:35:11;;;;;;;4.35;3.95;;;23.00;57.40;;;;;;5100796;27;20055;-70
2021/07/05 07:37:40;;;;;;;5.53;4.57;;;23.00;57.40;;;;;;5097507;28;20488;-70
2021/07/05 07:40:23;;;;;;;7.50;4.15;;;23.10;57.40;;;;;;5096554;28;20086;-69
2021/07/05 07:42:51;;;;;;;6.65;4.70;;;23.10;57.30;;;;;;5102493;27;20097;-69
2021/07/05 07:45:19;;;;;;;5.70;4.15;;;23.10;57.30;;;;;;5100411;27;20130;-69
2021/07/05 07:47:47;;;;;;;6.45;4.47;;;23.10;57.20;;;;;;5100287;28;20054;-70
2021/07/05 07:50:17;;;;;;;9.20;4.32;;;23.20;57.40;;;;;;5096862;28;20697;-70
2021/07/05 07:52:45;;;;;;;4.87;4.37;;;23.20;57.30;;;;;;5095243;28;20127;-68
2021/07/05 07:55:14;;;;;;;6.38;5.05;;;23.20;57.50;;;;;;5097198;27;20523;-71
2021/07/05 07:57:42;;;;;;;5.88;4.72;;;23.20;57.70;;;;;;5105362;27;20071;-69
2021/07/05 08:00:12;;;;;;;7.93;4.38;;;23.20;57.60;;;;;;5101174;27;20457;-70
2021/07/05 08:02:44;;;;;;;5.55;4.20;;;23.20;57.70;;;;;;5099656;27;20477;-69
2021/07/05 08:05:14;;;;;;;13.30;4.95;;;23.20;57.50;;;;;;5081188;28;20043;-70
2021/07/05 08:07:42;;;;;;;5.45;4.72;;;23.20;57.60;;;;;;5101138;27;20052;-69
2021/07/05 08:10:11;;;;;;;5.55;4.18;;;23.20;57.50;;;;;;5106112;27;20128;-70
2021/07/05 08:12:40;;;;;;;5.80;4.10;;;23.20;57.60;;;;;;5104208;28;20095;-70
2021/07/05 08:15:09;;;;;;;4.63;4.15;;;23.30;57.70;;;;;;5097937;28;20048;-70
2021/07/05 08:17:36;;;;;;;6.35;4.63;;;23.20;57.50;;;;;;5099434;28;20079;-69
2021/07/05 08:20:07;;;;;;;5.25;4.57;;;23.20;57.60;;;;;;5082926;28;20603;-71
2021/07/05 08:22:34;;;;;;;10.35;4.13;;;23.20;57.80;;;;;;5100159;28;20144;-70
2021/07/05 08:25:04;;;;;;;6.00;3.95;;;23.20;57.70;;;;;;5099494;28;20152;-69
2021/07/05 08:27:34;;;;;;;8.83;5.27;;;23.20;57.70;;;;;;5096371;28;20389;-69
2021/07/05 08:30:05;;;;;;;8.07;4.60;;;23.30;57.80;;;;;;5100110;28;20569;-69
2021/07/05 08:32:32;;;;;;;5.05;4.55;;;23.30;58.00;;;;;;5101806;28;20082;-68
2021/07/05 08:35:00;;;;;;;7.15;4.53;;;23.30;58.30;;;;;;5100345;28;20492;-69
2021/07/05 08:37:28;;;;;;;9.60;5.00;;;23.30;58.00;;;;;;5104155;28;20112;-70
2021/07/05 08:39:55;;;;;;;4.65;4.25;;;23.30;58.00;;;;;;5100258;28;20066;-70
2021/07/05 08:42:25;;;;;;;8.18;5.65;;;23.30;58.10;;;;;;5101891;28;20796;-70
2021/07/05 08:44:53;;;;;;;5.35;4.57;;;23.30;58.00;;;;;;5100692;28;20403;-70
2021/07/05 08:47:23;;;;;;;6.85;4.90;;;23.30;58.00;;;;;;5103666;28;20062;-70
2021/07/05 08:49:51;;;;;;;5.25;4.75;;;23.40;58.00;;;;;;5099415;28;20056;-70
2021/07/05 08:52:18;;;;;;;6.63;5.10;;;23.40;57.90;;;;;;5096669;28;20059;-70
2021/07/05 08:54:45;;;;;;;6.45;4.38;;;23.40;57.90;;;;;;5104398;28;20146;-69
2021/07/05 08:57:36;;;;;;;4.60;4.03;;;23.50;57.90;;;;;;5098097;28;20108;-70
2021/07/05 09:00:01;;;;;;;5.03;4.53;;;23.50;58.00;;;;;;5103903;28;20065;-70
2021/07/05 09:02:28;;;;;;;5.90;4.53;;;23.50;58.10;;;;;;5101457;28;20512;-71
2021/07/05 09:04:56;;;;;;;6.53;4.78;;;23.50;58.10;;;;;;5102443;28;20200;-70
2021/07/05 09:07:23;;;;;;;5.90;4.45;;;23.60;58.20;;;;;;5098344;28;20096;-72
2021/07/05 09:10:03;;;;;;;7.50;4.57;;;23.60;58.20;;;;;;5094959;28;20078;-71
2021/07/05 09:12:30;;;;;;;;;;;23.60;58.10;;;;;;5099723;27;20107;-70
2021/07/05 09:15:13;;;;;;;5.93;4.35;;;23.70;58.10;;;;;;5108611;27;19920;-68
2021/07/05 09:17:42;;;;;;;8.10;4.88;;;23.80;57.90;;;;;;5088871;28;20052;-69
2021/07/05 09:20:20;;;;;;;5.95;4.10;;;23.80;57.90;;;;;;5087216;28;20128;-69
2021/07/05 09:23:09;;;;;;;5.50;4.35;;;23.90;57.80;;;;;;5104208;27;20048;-68
2021/07/05 09:25:47;;;;;;;9.65;4.65;;;23.90;57.60;;;;;;5089983;28;20501;-70
2021/07/05 09:28:20;;;;;;;5.10;4.38;;;24.00;57.50;;;;;;5095479;28;20178;-70
2021/07/05 09:30:59;;;;;;;5.60;4.40;;;24.10;57.40;;;;;;5078746;27;20511;-70
2021/07/05 09:33:29;;;;;;;4.70;4.20;;;24.10;57.30;;;;;;5079169;28;20130;-70
2021/07/05 09:36:03;;;;;;;5.13;4.27;;;24.20;57.20;;;;;;5101816;27;20058;-73
2021/07/05 09:38:41;;;;;;;4.55;4.15;;;24.20;57.10;;;;;;5099793;27;20296;-71
2021/07/05 09:41:27;;;;;;;6.47;4.78;;;24.30;57.00;;;;;;5100498;28;21130;-72
2021/07/05 09:44:03;;;;;;;5.47;4.15;;;24.40;56.90;;;;;;5095896;28;20385;-72
2021/07/05 09:46:40;;;;;;;4.60;3.92;;;24.40;56.80;;;;;;5083473;28;20071;-68
2021/07/05 09:49:24;;;;;;;6.13;4.57;;;24.50;56.70;;;;;;5102040;28;20047;-71
2021/07/05 09:52:16;;;;;;;7.07;4.53;;;24.50;56.60;;;;;;5086431;28;20419;-70
2021/07/05 09:54:47;;;;;;;4.75;4.32;;;24.60;56.50;;;;;;5086263;28;20047;-67
2021/07/05 09:57:27;;;;;;;5.00;4.60;;;24.60;56.40;;;;;;5095870;28;20047;-68
2021/07/05 10:00:17;;;;;;;9.95;4.88;;;24.70;56.80;;;;;;5099041;27;20046;-67
2021/07/05 10:03:04;;;;;;;5.35;4.57;;;24.70;56.90;;;;;;5082588;28;20043;-71
2021/07/05 10:05:43;;;;;;;7.03;5.00;;;24.70;56.70;;;;;;5086820;27;20047;-68
2021/07/05 10:08:12;;;;;;;5.82;4.80;;;24.80;56.40;;;;;;5099605;28;20051;-69
2021/07/05 10:10:43;;;;;;;5.70;4.93;;;24.80;56.60;;;;;;5078671;28;20051;-68
2021/07/05 10:13:16;;;;;;;6.20;5.13;;;24.80;57.80;;;;;;5102225;27;20522;-71
2021/07/05 10:15:46;;;;;;;6.45;5.30;;;24.80;57.80;;;;;;5097203;28;20043;-68
2021/07/05 10:18:13;;;;;;;6.95;5.03;;;24.70;57.80;;;;;;5104603;28;20055;-69
2021/07/05 10:20:43;;;;;;;8.55;4.78;;;24.70;57.70;;;;;;5101037;28;20455;-68
2021/07/05 10:23:13;;;;;;;5.82;5.10;;;24.70;57.90;;;;;;5096840;28;20056;-70
2021/07/05 10:25:48;;;;;;;5.43;4.93;;;24.60;57.80;;;;;;5100457;27;20545;-68
2021/07/05 10:28:16;;;;;;;7.15;4.68;;;24.60;57.80;;;;;;5098209;28;20040;-70
2021/07/05 10:30:45;;;;;;;5.70;4.18;;;24.60;58.00;;;;;;5080819;28;20035;-71
2021/07/05 10:33:12;;;;;;;5.40;4.90;;;24.60;57.90;;;;;;5099908;27;20485;-70
2021/07/05 10:35:43;;;;;;;4.85;4.35;;;24.60;57.90;;;;;;5099117;27;20047;-69
2021/07/05 10:38:30;;;;;;;4.68;4.05;;;24.60;57.80;;;;;;5100776;27;20497;-69
2021/07/05 10:41:07;;;;;;;5.05;4.38;;;24.60;57.70;;;;;;5104702;27;20086;-69
2021/07/05 10:43:58;;;;;;;5.05;4.32;;;24.60;57.60;;;;;;5109231;27;20078;-69
2021/07/05 10:46:45;;;;;;;5.03;4.60;;;24.60;57.70;;;;;;5097607;27;20199;-69
2021/07/05 10:49:45;;;;;;;6.50;4.93;;;24.60;57.50;;;;;;5098134;27;20035;-69
2021/07/05 10:52:16;;;;;;;5.28;4.20;;;24.60;57.70;;;;;;5086368;27;20576;-71
2021/07/05 10:54:56;;;;;;;5.80;4.38;;;24.60;57.80;;;;;;5098697;28;20054;-71
2021/07/05 10:57:53;;;;;;;4.60;4.20;;;24.50;57.80;;;;;;5097417;27;20051;-73
2021/07/05 11:00:20;;;;;;;4.60;4.20;;;24.60;58.10;;;;;;5089276;27;20082;-67
2021/07/05 11:02:53;;;;;;;4.55;4.15;;;24.50;58.30;;;;;;5096175;27;20564;-67
2021/07/05 11:05:35;;;;;;;5.15;4.40;;;24.50;58.50;;;;;;5081781;27;20560;-67
2021/07/05 11:08:21;;;;;;;4.70;4.28;;;24.50;58.80;;;;;;5096222;27;20039;-68
2021/07/05 11:10:52;;;;;;;5.22;4.72;;;24.60;58.90;;;;;;5086414;27;20469;-70
2021/07/05 11:13:20;;;;;;;5.40;4.18;;;24.60;59.10;;;;;;5096259;27;20052;-68
2021/07/05 11:15:56;;;;;;;5.07;4.43;;;24.60;58.70;;;;;;5095817;27;20051;-71
2021/07/05 11:18:56;;;;;;;4.82;4.13;;;24.50;58.70;;;;;;5097412;27;20160;-70
2021/07/05 11:21:54;;;;;;;5.10;4.57;;;24.50;58.60;;;;;;5082084;27;20514;-70
2021/07/05 11:24:21;;;;;;;4.60;4.10;;;24.60;58.50;;;;;;5081471;27;20119;-69
2021/07/05 11:26:50;;;;;;;5.65;4.28;;;24.60;58.50;;;;;;5093361;27;20066;-70
2021/07/05 11:29:25;;;;;;;5.10;4.30;;;24.60;58.40;;;;;;5087209;27;20051;-70
2021/07/05 11:31:56;;;;;;;4.82;4.32;;;24.60;58.30;;;;;;5101269;28;20070;-71
2021/07/05 11:34:34;;;;;;;;;;;24.60;58.30;;;;;;5101786;28;20047;-70
2021/07/05 11:37:31;;;;;;;5.38;4.15;;;24.60;58.20;;;;;;5098053;27;20076;-72
2021/07/05 11:39:58;;;;;;;4.20;3.80;;;24.50;58.20;;;;;;5095784;28;20052;-70
2021/07/05 11:42:58;;;;;;;6.03;4.38;;;24.50;58.20;;;;;;5100409;28;20766;-69
2021/07/05 11:45:39;;;;;;;;;;;24.50;58.30;;;;;;5085963;27;20046;-70
2021/07/05 11:48:08;;;;;;;5.32;4.15;;;24.50;58.40;;;;;;5078630;28;19928;-72
2021/07/05 11:50:39;;;;;;;4.20;3.80;;;24.50;58.50;;;;;;5101296;27;20556;-69
2021/07/05 11:53:11;;;;;;;4.40;4.00;;;24.40;58.60;;;;;;5099920;27;20139;-69
2021/07/05 11:55:38;;;;;;;7.13;4.22;;;24.40;58.60;;;;;;5100378;28;20054;-72
2021/07/05 11:58:07;;;;;;;4.88;4.07;;;24.50;58.50;;;;;;5098522;28;20445;-72
2021/07/05 12:00:37;;;;;;;5.80;3.78;;;24.50;58.40;;;;;;5098388;28;20158;-70
2021/07/05 12:03:11;;;;;;;4.75;4.35;;;24.50;58.50;;;;;;5098657;27;20066;-70
2021/07/05 12:05:42;;;;;;;4.63;4.15;;;24.50;58.50;;;;;;5089818;28;20082;-71
2021/07/05 12:08:13;;;;;;;4.25;3.83;;;24.50;58.50;;;;;;5089676;27;20131;-70
2021/07/05 12:10:43;;;;;;;4.60;4.20;;;24.60;58.40;;;;;;5090012;28;21359;-69
2021/07/05 12:13:21;;;;;;;7.77;4.27;;;24.60;58.30;;;;;;5090314;27;20051;-68
2021/07/05 12:16:07;;;;;;;5.00;4.50;;;24.60;58.30;;;;;;5087948;28;20188;-68
2021/07/05 12:18:36;;;;;;;5.53;4.72;;;24.60;58.10;;;;;;5088473;28;20041;-68
2021/07/05 12:21:07;;;;;;;4.32;3.92;;;24.60;58.10;;;;;;5088125;28;20046;-68
2021/07/05 12:23:36;;;;;;;4.20;3.85;;;24.60;58.10;;;;;;5092717;28;20048;-70
2021/07/05 12:26:14;;;;;;;4.40;3.97;;;24.70;58.00;;;;;;5096067;28;20059;-66
2021/07/05 12:29:06;;;;;;;5.72;4.10;;;24.60;57.90;;;;;;5086719;28;20570;-67
2021/07/05 12:31:33;;;;;;;3.95;3.55;;;24.60;57.90;;;;;;5093454;28;20036;-67
2021/07/05 12:34:03;;;;;;;4.80;3.92;;;24.60;57.80;;;;;;5094637;28;20501;-68
2021/07/05 12:36:32;;;;;;;6.85;4.45;;;24.60;57.70;;;;;;5075570;28;20465;-67
2021/07/05 12:39:07;;;;;;;4.40;4.00;;;24.60;57.60;;;;;;5092870;28;20448;-68
2021/07/05 12:41:37;;;;;;;4.60;4.20;;;24.60;57.80;;;;;;5090768;28;20122;-69
2021/07/05 12:44:11;;;;;;;4.45;3.53;;;24.70;57.70;;;;;;5090664;28;20143;-69
2021/07/05 12:46:38;;;;;;;4.57;4.18;;;24.70;57.60;;;;;;5084374;28;20055;-70
2021/07/05 12:49:09;;;;;;;4.68;4.15;;;24.70;58.00;;;;;;5086609;28;20905;-68
2021/07/05 12:51:37;;;;;;;5.65;4.07;;;24.70;57.90;;;;;;5095381;27;20040;-67
2021/07/05 12:54:19;;;;;;;5.43;4.40;;;24.70;57.80;;;;;;5095573;28;20047;-67
2021/07/05 12:56:46;;;;;;;4.07;3.67;;;24.80;57.90;;;;;;5077990;28;20166;-70
2021/07/05 12:59:19;;;;;;;5.60;3.70;;;24.80;58.10;;;;;;5074530;28;20052;-65
2021/07/05 13:01:47;;;;;;;8.68;4.30;;;24.90;58.20;;;;;;5097152;28;20063;-69
2021/07/05 13:04:20;;;;;;;4.35;3.72;;;24.90;58.20;;;;;;5093192;28;20067;-69
2021/07/05 13:07:00;;;;;;;4.22;3.83;;;24.90;58.30;;;;;;5077432;27;20070;-67